sensor_id;sensor_type;location;lat;lon;timestamp;pressure;altitude;pressure_sealevel;temperature;humidity
50434;BME280;36361;38.954;-9.002;2023-02-28T00:00:01;101091.53;;;9.75;100.00
50434;BME280;36361;38.954;-9.002;2023-02-28T00:01:11;101092.63;;;9.80;100.00
50434;BME280;36361;38.954;-9.002;2023-02-28T00:02:13;101091.97;;;9.78;100.00
50434;BME280;36361;38.954;-9.002;2023-02-28T00:03:14;101094.03;;;9.69;100.00
50434;BME280;36361;38.954;-9.002;2023-02-28T00:04:16;101099.00;;;9.66;100.00
50434;BME280;36361;38.954;-9.002;2023-02-28T00:05:19;101113.28;;;9.75;100.00
50434;BME280;36361;38.954;-9.002;2023-02-28T00:06:21;101104.44;;;9.66;100.00
50434;BME280;36361;38.954;-9.002;2023-02-28T00:07:23;101110.81;;;9.80;100.00
50434;BME280;36361;38.954;-9.002;2023-02-28T00:08:24;101101.78;;;9.73;100.00
50434;BME280;36361;38.954;-9.002;2023-02-28T00:09:26;101107.00;;;9.74;100.00
50434;BME280;36361;38.954;-9.002;2023-02-28T00:10:29;101106.16;;;9.74;100.00
50434;BME280;36361;38.954;-9.002;2023-02-28T00:11:30;101108.78;;;9.88;100.00
50434;BME280;36361;38.954;-9.002;2023-02-28T00:12:32;101105.66;;;9.91;100.00
50434;BME280;36361;38.954;-9.002;2023-02-28T00:13:40;101114.28;;;10.02;100.00
50434;BME280;36361;38.954;-9.002;2023-02-28T00:14:41;101124.31;;;10.01;100.00
50434;BME280;36361;38.954;-9.002;2023-02-28T00:15:43;101120.44;;;9.82;100.00
50434;BME280;36361;38.954;-9.002;2023-02-28T00:16:46;101120.34;;;9.69;100.00
50434;BME280;36361;38.954;-9.002;2023-02-28T00:17:47;101119.97;;;9.72;100.00
50434;BME280;36361;38.954;-9.002;2023-02-28T00:18:49;101123.72;;;9.71;100.00
50434;BME280;36361;38.954;-9.002;2023-02-28T00:19:51;101121.03;;;9.50;100.00
50434;BME280;36361;38.954;-9.002;2023-02-28T00:20:52;101130.34;;;9.62;100.00
50434;BME280;36361;38.954;-9.002;2023-02-28T00:21:53;101119.81;;;9.80;100.00
50434;BME280;36361;38.954;-9.002;2023-02-28T00:22:55;101112.84;;;9.71;100.00
50434;BME280;36361;38.954;-9.002;2023-02-28T00:23:57;101125.75;;;9.62;100.00
50434;BME280;36361;38.954;-9.002;2023-02-28T00:24:58;101114.47;;;9.65;100.00
50434;BME280;36361;38.954;-9.002;2023-02-28T00:26:00;101127.91;;;9.74;100.00
50434;BME280;36361;38.954;-9.002;2023-02-28T00:27:01;101134.97;;;9.68;100.00
50434;BME280;36361;38.954;-9.002;2023-02-28T00:28:03;101131.41;;;9.61;100.00
50434;BME280;36361;38.954;-9.002;2023-02-28T00:29:04;101134.34;;;9.66;100.00
50434;BME280;36361;38.954;-9.002;2023-02-28T00:30:10;101139.69;;;9.81;100.00
50434;BME280;36361;38.954;-9.002;2023-02-28T00:31:16;101139.53;;;9.61;100.00
50434;BME280;36361;38.954;-9.002;2023-02-28T00:32:18;101143.28;;;9.60;100.00
50434;BME280;36361;38.954;-9.002;2023-02-28T00:33:21;101138.19;;;9.50;100.00
50434;BME280;36361;38.954;-9.002;2023-02-28T00:34:29;101141.66;;;9.65;100.00
50434;BME280;36361;38.954;-9.002;2023-02-28T00:35:33;101142.53;;;9.73;100.00
50434;BME280;36361;38.954;-9.002;2023-02-28T00:36:38;101136.66;;;9.69;100.00
50434;BME280;36361;38.954;-9.002;2023-02-28T00:37:43;101143.59;;;9.44;100.00
50434;BME280;36361;38.954;-9.002;2023-02-28T00:38:46;101131.97;;;9.56;100.00
50434;BME280;36361;38.954;-9.002;2023-02-28T00:39:47;101130.38;;;9.68;100.00
50434;BME280;36361;38.954;-9.002;2023-02-28T00:40:56;101130.72;;;9.59;100.00
50434;BME280;36361;38.954;-9.002;2023-02-28T00:42:03;101136.13;;;9.80;100.00
50434;BME280;36361;38.954;-9.002;2023-02-28T00:43:04;101135.16;;;9.94;100.00
50434;BME280;36361;38.954;-9.002;2023-02-28T00:44:06;101128.69;;;9.61;100.00
50434;BME280;36361;38.954;-9.002;2023-02-28T00:45:13;101125.69;;;9.56;100.00
50434;BME280;36361;38.954;-9.002;2023-02-28T00:46:15;101120.75;;;9.66;100.00
50434;BME280;36361;38.954;-9.002;2023-02-28T00:47:18;101117.47;;;9.77;100.00
50434;BME280;36361;38.954;-9.002;2023-02-28T00:48:20;101113.03;;;9.97;100.00
50434;BME280;36361;38.954;-9.002;2023-02-28T00:49:22;101115.84;;;10.17;100.00
50434;BME280;36361;38.954;-9.002;2023-02-28T00:50:23;101116.13;;;10.29;100.00
50434;BME280;36361;38.954;-9.002;2023-02-28T00:51:25;101115.69;;;10.32;100.00
50434;BME280;36361;38.954;-9.002;2023-02-28T00:52:26;101117.63;;;10.38;100.00
50434;BME280;36361;38.954;-9.002;2023-02-28T00:53:29;101107.13;;;10.29;100.00
50434;BME280;36361;38.954;-9.002;2023-02-28T00:54:31;101106.03;;;10.23;100.00
50434;BME280;36361;38.954;-9.002;2023-02-28T00:55:33;101107.25;;;10.20;100.00
50434;BME280;36361;38.954;-9.002;2023-02-28T00:56:34;101103.06;;;10.18;100.00
50434;BME280;36361;38.954;-9.002;2023-02-28T00:57:36;101102.81;;;10.13;100.00
50434;BME280;36361;38.954;-9.002;2023-02-28T00:58:37;101105.31;;;10.08;100.00
50434;BME280;36361;38.954;-9.002;2023-02-28T00:59:39;101110.53;;;10.03;100.00
50434;BME280;36361;38.954;-9.002;2023-02-28T01:00:40;101102.81;;;10.06;100.00
50434;BME280;36361;38.954;-9.002;2023-02-28T01:01:43;101110.47;;;9.96;100.00
50434;BME280;36361;38.954;-9.002;2023-02-28T01:02:46;101116.75;;;9.96;100.00
50434;BME280;36361;38.954;-9.002;2023-02-28T01:03:49;101117.63;;;10.04;100.00
50434;BME280;36361;38.954;-9.002;2023-02-28T01:04:50;101119.97;;;10.07;100.00
50434;BME280;36361;38.954;-9.002;2023-02-28T01:05:51;101114.53;;;10.07;100.00
50434;BME280;36361;38.954;-9.002;2023-02-28T01:06:55;101115.53;;;10.06;100.00
50434;BME280;36361;38.954;-9.002;2023-02-28T01:07:57;101119.72;;;10.02;100.00
50434;BME280;36361;38.954;-9.002;2023-02-28T01:09:00;101112.19;;;10.04;100.00
50434;BME280;36361;38.954;-9.002;2023-02-28T01:10:04;101118.88;;;10.01;100.00
50434;BME280;36361;38.954;-9.002;2023-02-28T01:11:10;101111.97;;;9.98;100.00
50434;BME280;36361;38.954;-9.002;2023-02-28T01:12:14;101120.34;;;9.97;100.00
50434;BME280;36361;38.954;-9.002;2023-02-28T01:13:19;101111.31;;;9.96;100.00
50434;BME280;36361;38.954;-9.002;2023-02-28T01:14:21;101127.41;;;9.91;100.00
50434;BME280;36361;38.954;-9.002;2023-02-28T01:15:24;101123.44;;;9.94;100.00
50434;BME280;36361;38.954;-9.002;2023-02-28T01:16:27;101120.34;;;9.69;100.00
50434;BME280;36361;38.954;-9.002;2023-02-28T01:17:29;101124.44;;;9.86;100.00
50434;BME280;36361;38.954;-9.002;2023-02-28T01:18:30;101127.16;;;9.86;100.00
50434;BME280;36361;38.954;-9.002;2023-02-28T01:19:32;101132.63;;;9.93;100.00
50434;BME280;36361;38.954;-9.002;2023-02-28T01:20:36;101126.72;;;9.83;100.00
50434;BME280;36361;38.954;-9.002;2023-02-28T01:21:38;101130.97;;;9.92;100.00
50434;BME280;36361;38.954;-9.002;2023-02-28T01:22:40;101120.03;;;9.85;100.00
50434;BME280;36361;38.954;-9.002;2023-02-28T01:23:42;101122.69;;;9.72;100.00
50434;BME280;36361;38.954;-9.002;2023-02-28T01:24:44;101132.81;;;9.57;100.00
50434;BME280;36361;38.954;-9.002;2023-02-28T01:25:47;101122.22;;;9.68;100.00
50434;BME280;36361;38.954;-9.002;2023-02-28T01:26:48;101121.59;;;9.66;100.00
50434;BME280;36361;38.954;-9.002;2023-02-28T01:27:49;101125.69;;;9.56;100.00
50434;BME280;36361;38.954;-9.002;2023-02-28T01:28:52;101129.06;;;9.58;100.00
50434;BME280;36361;38.954;-9.002;2023-02-28T01:29:53;101123.63;;;9.58;100.00
50434;BME280;36361;38.954;-9.002;2023-02-28T01:30:55;101123.66;;;9.64;100.00
50434;BME280;36361;38.954;-9.002;2023-02-28T01:31:56;101128.13;;;9.44;100.00
50434;BME280;36361;38.954;-9.002;2023-02-28T01:33:00;101124.81;;;9.49;100.00
50434;BME280;36361;38.954;-9.002;2023-02-28T01:34:02;101129.88;;;9.58;100.00
50434;BME280;36361;38.954;-9.002;2023-02-28T01:35:05;101126.09;;;9.53;100.00
50434;BME280;36361;38.954;-9.002;2023-02-28T01:37:13;101129.88;;;9.58;100.00
50434;BME280;36361;38.954;-9.002;2023-02-28T01:38:18;101120.66;;;9.53;100.00
50434;BME280;36361;38.954;-9.002;2023-02-28T01:39:26;101126.81;;;9.68;100.00
50434;BME280;36361;38.954;-9.002;2023-02-28T01:40:27;101123.72;;;9.71;100.00
50434;BME280;36361;38.954;-9.002;2023-02-28T01:41:32;101123.25;;;9.61;100.00
50434;BME280;36361;38.954;-9.002;2023-02-28T01:42:35;101129.88;;;9.58;100.00
50434;BME280;36361;38.954;-9.002;2023-02-28T01:45:59;101130.91;;;9.85;100.00
50434;BME280;36361;38.954;-9.002;2023-02-28T01:47:01;101120.00;;;9.79;100.00
50434;BME280;36361;38.954;-9.002;2023-02-28T01:48:06;101128.81;;;9.81;100.00
50434;BME280;36361;38.954;-9.002;2023-02-28T01:49:13;101129.69;;;9.88;100.00
50434;BME280;36361;38.954;-9.002;2023-02-28T01:50:22;101131.38;;;9.89;100.00
50434;BME280;36361;38.954;-9.002;2023-02-28T01:51:31;101127.34;;;9.85;100.00
50434;BME280;36361;38.954;-9.002;2023-02-28T01:52:34;101126.97;;;9.60;100.00
50434;BME280;36361;38.954;-9.002;2023-02-28T01:53:41;101138.72;;;9.67;100.00
50434;BME280;36361;38.954;-9.002;2023-02-28T01:54:43;101131.13;;;9.56;100.00
50434;BME280;36361;38.954;-9.002;2023-02-28T01:55:50;101144.47;;;9.51;100.00
50434;BME280;36361;38.954;-9.002;2023-02-28T01:58:02;101142.94;;;9.20;100.00
50434;BME280;36361;38.954;-9.002;2023-02-28T01:59:04;101143.47;;;9.09;100.00
50434;BME280;36361;38.954;-9.002;2023-02-28T02:00:13;101141.41;;;8.90;100.00
50434;BME280;36361;38.954;-9.002;2023-02-28T02:01:21;101136.81;;;8.90;100.00
50434;BME280;36361;38.954;-9.002;2023-02-28T02:02:24;101143.09;;;8.91;100.00
50434;BME280;36361;38.954;-9.002;2023-02-28T02:03:26;101140.13;;;9.07;100.00
50434;BME280;36361;38.954;-9.002;2023-02-28T02:04:34;101140.22;;;8.77;100.00
50434;BME280;36361;38.954;-9.002;2023-02-28T02:05:39;101138.19;;;8.79;100.00
50434;BME280;36361;38.954;-9.002;2023-02-28T02:06:43;101143.72;;;9.14;100.00
50434;BME280;36361;38.954;-9.002;2023-02-28T02:07:48;101147.16;;;9.23;100.00
50434;BME280;36361;38.954;-9.002;2023-02-28T02:08:51;101147.22;;;9.29;100.00
50434;BME280;36361;38.954;-9.002;2023-02-28T02:10:06;101152.78;;;9.21;100.00
50434;BME280;36361;38.954;-9.002;2023-02-28T02:11:12;101149.69;;;9.24;100.00
50434;BME280;36361;38.954;-9.002;2023-02-28T02:12:37;101149.22;;;9.21;100.00
50434;BME280;36361;38.954;-9.002;2023-02-28T02:13:52;101150.56;;;9.31;100.00
50434;BME280;36361;38.954;-9.002;2023-02-28T02:16:17;101144.75;;;9.34;100.00
50434;BME280;36361;38.954;-9.002;2023-02-28T02:17:39;101149.44;;;9.47;100.00
50434;BME280;36361;38.954;-9.002;2023-02-28T02:18:58;101135.66;;;9.49;100.00
50434;BME280;36361;38.954;-9.002;2023-02-28T02:34:29;101139.25;;;8.85;100.00
50434;BME280;36361;38.954;-9.002;2023-02-28T02:39:45;101146.44;;;8.71;100.00
50434;BME280;36361;38.954;-9.002;2023-02-28T02:41:04;101151.38;;;8.68;100.00
50434;BME280;36361;38.954;-9.002;2023-02-28T02:42:20;101152.09;;;8.76;100.00
50434;BME280;36361;38.954;-9.002;2023-02-28T02:43:31;101145.84;;;8.76;100.00
50434;BME280;36361;38.954;-9.002;2023-02-28T02:44:43;101150.44;;;8.75;100.00
50434;BME280;36361;38.954;-9.002;2023-02-28T02:45:54;101146.91;;;8.96;100.00
50434;BME280;36361;38.954;-9.002;2023-02-28T02:47:05;101137.59;;;9.05;100.00
50434;BME280;36361;38.954;-9.002;2023-02-28T02:48:11;101141.53;;;9.03;100.00
50434;BME280;36361;38.954;-9.002;2023-02-28T02:49:22;101130.16;;;8.93;100.00
50434;BME280;36361;38.954;-9.002;2023-02-28T02:50:31;101127.19;;;8.88;100.00
50434;BME280;36361;38.954;-9.002;2023-02-28T02:51:34;101133.16;;;8.98;100.00
50434;BME280;36361;38.954;-9.002;2023-02-28T02:52:51;101131.84;;;8.94;100.00
50434;BME280;36361;38.954;-9.002;2023-02-28T02:55:02;101129.13;;;8.72;100.00
50434;BME280;36361;38.954;-9.002;2023-02-28T02:56:06;101135.06;;;8.82;100.00
50434;BME280;36361;38.954;-9.002;2023-02-28T02:57:14;101137.13;;;9.02;100.00
50434;BME280;36361;38.954;-9.002;2023-02-28T02:58:18;101135.19;;;8.96;100.00
50434;BME280;36361;38.954;-9.002;2023-02-28T02:59:24;101137.22;;;8.87;100.00
50434;BME280;36361;38.954;-9.002;2023-02-28T03:00:30;101136.81;;;8.90;100.00
50434;BME280;36361;38.954;-9.002;2023-02-28T03:01:34;101124.28;;;8.89;100.00
50434;BME280;36361;38.954;-9.002;2023-02-28T03:02:38;101125.13;;;8.90;100.00
50434;BME280;36361;38.954;-9.002;2023-02-28T03:03:41;101123.50;;;8.95;100.00
50434;BME280;36361;38.954;-9.002;2023-02-28T03:04:51;101113.75;;;8.79;100.00
50434;BME280;36361;38.954;-9.002;2023-02-28T03:05:57;101105.81;;;8.42;100.00
50434;BME280;36361;38.954;-9.002;2023-02-28T03:06:59;101105.91;;;8.04;100.00
50434;BME280;36361;38.954;-9.002;2023-02-28T03:08:03;101112.94;;;8.13;100.00
50434;BME280;36361;38.954;-9.002;2023-02-28T03:09:06;101110.78;;;8.23;100.00
50434;BME280;36361;38.954;-9.002;2023-02-28T03:11:30;101125.25;;;8.31;100.00
50434;BME280;36361;38.954;-9.002;2023-02-28T03:12:40;101119.75;;;8.09;100.00
50434;BME280;36361;38.954;-9.002;2023-02-28T03:15:52;101115.94;;;8.04;100.00
50434;BME280;36361;38.954;-9.002;2023-02-28T03:17:22;101104.16;;;8.11;100.00
50434;BME280;36361;38.954;-9.002;2023-02-28T03:18:36;101103.13;;;8.42;100.00
50434;BME280;36361;38.954;-9.002;2023-02-28T03:19:51;101094.34;;;8.61;100.00
50434;BME280;36361;38.954;-9.002;2023-02-28T03:20:59;101098.47;;;8.57;100.00
50434;BME280;36361;38.954;-9.002;2023-02-28T03:22:26;101101.81;;;8.59;100.00
50434;BME280;36361;38.954;-9.002;2023-02-28T03:26:23;101088.81;;;8.18;100.00
50434;BME280;36361;38.954;-9.002;2023-02-28T03:27:29;101093.28;;;8.41;100.00
50434;BME280;36361;38.954;-9.002;2023-02-28T03:28:43;101093.03;;;8.57;100.00
50434;BME280;36361;38.954;-9.002;2023-02-28T03:30:47;101093.28;;;8.41;100.00
50434;BME280;36361;38.954;-9.002;2023-02-28T03:32:42;101097.59;;;8.20;100.00
50434;BME280;36361;38.954;-9.002;2023-02-28T03:35:15;101098.06;;;8.24;100.00
50434;BME280;36361;38.954;-9.002;2023-02-28T03:36:29;101096.75;;;8.35;100.00
50434;BME280;36361;38.954;-9.002;2023-02-28T03:37:32;101094.97;;;8.12;100.00
50434;BME280;36361;38.954;-9.002;2023-02-28T03:38:55;101094.34;;;8.10;100.00
50434;BME280;36361;38.954;-9.002;2023-02-28T03:40:04;101092.16;;;8.20;100.00
50434;BME280;36361;38.954;-9.002;2023-02-28T03:41:15;101097.41;;;8.22;100.00
50434;BME280;36361;38.954;-9.002;2023-02-28T03:42:23;101092.09;;;8.14;100.00
50434;BME280;36361;38.954;-9.002;2023-02-28T03:43:31;101087.03;;;8.25;100.00
50434;BME280;36361;38.954;-9.002;2023-02-28T03:44:38;101089.66;;;8.19;100.00
50434;BME280;36361;38.954;-9.002;2023-02-28T03:45:41;101086.78;;;7.91;100.00
50434;BME280;36361;38.954;-9.002;2023-02-28T03:47:04;101090.91;;;7.87;100.00
50434;BME280;36361;38.954;-9.002;2023-02-28T03:49:21;101094.56;;;7.79;100.00
50434;BME280;36361;38.954;-9.002;2023-02-28T03:50:44;101086.59;;;7.63;100.00
50434;BME280;36361;38.954;-9.002;2023-02-28T03:51:47;101091.66;;;7.51;100.00
50434;BME280;36361;38.954;-9.002;2023-02-28T03:52:55;101093.03;;;7.47;100.00
50434;BME280;36361;38.954;-9.002;2023-02-28T03:54:09;101085.75;;;7.48;100.00
50434;BME280;36361;38.954;-9.002;2023-02-28T03:55:14;101095.72;;;7.47;100.00
50434;BME280;36361;38.954;-9.002;2023-02-28T03:56:21;101099.09;;;7.49;100.00
50434;BME280;36361;38.954;-9.002;2023-02-28T04:00:06;101106.50;;;7.18;100.00
50434;BME280;36361;38.954;-9.002;2023-02-28T04:02:19;101099.19;;;7.56;100.00
50434;BME280;36361;38.954;-9.002;2023-02-28T04:03:21;101111.38;;;7.60;100.00
50434;BME280;36361;38.954;-9.002;2023-02-28T04:04:24;101108.66;;;7.75;100.00
50434;BME280;36361;38.954;-9.002;2023-02-28T04:05:26;101117.19;;;7.86;100.00
50434;BME280;36361;38.954;-9.002;2023-02-28T04:06:31;101121.34;;;7.74;100.00
50434;BME280;36361;38.954;-9.002;2023-02-28T04:07:35;101128.25;;;7.77;100.00
50434;BME280;36361;38.954;-9.002;2023-02-28T04:08:37;101133.66;;;7.47;100.00
50434;BME280;36361;38.954;-9.002;2023-02-28T04:09:40;101134.75;;;7.38;100.00
50434;BME280;36361;38.954;-9.002;2023-02-28T04:10:46;101140.84;;;7.55;100.00
50434;BME280;36361;38.954;-9.002;2023-02-28T04:12:00;101137.94;;;7.41;100.00
50434;BME280;36361;38.954;-9.002;2023-02-28T04:13:08;101135.72;;;7.22;100.00
50434;BME280;36361;38.954;-9.002;2023-02-28T04:14:11;101143.22;;;6.97;100.00
50434;BME280;36361;38.954;-9.002;2023-02-28T04:15:13;101152.47;;;6.80;100.00
50434;BME280;36361;38.954;-9.002;2023-02-28T04:16:15;101167.03;;;6.79;100.00
50434;BME280;36361;38.954;-9.002;2023-02-28T04:17:17;101162.25;;;7.04;100.00
50434;BME280;36361;38.954;-9.002;2023-02-28T04:18:19;101161.38;;;7.11;100.00
50434;BME280;36361;38.954;-9.002;2023-02-28T04:19:24;101163.13;;;7.04;100.00
50434;BME280;36361;38.954;-9.002;2023-02-28T04:20:26;101165.66;;;7.06;100.00
50434;BME280;36361;38.954;-9.002;2023-02-28T04:21:43;101161.13;;;6.98;100.00
50434;BME280;36361;38.954;-9.002;2023-02-28T04:22:45;101162.88;;;6.91;100.00
50434;BME280;36361;38.954;-9.002;2023-02-28T04:23:47;101158.72;;;6.80;100.00
50434;BME280;36361;38.954;-9.002;2023-02-28T04:24:49;101156.38;;;7.00;100.00
50434;BME280;36361;38.954;-9.002;2023-02-28T04:25:55;101158.72;;;7.26;100.00
50434;BME280;36361;38.954;-9.002;2023-02-28T04:26:57;101153.19;;;7.20;100.00
50434;BME280;36361;38.954;-9.002;2023-02-28T04:28:00;101163.28;;;7.26;100.00
50434;BME280;36361;38.954;-9.002;2023-02-28T04:29:03;101169.28;;;7.36;100.00
50434;BME280;36361;38.954;-9.002;2023-02-28T04:30:06;101172.59;;;7.46;100.00
50434;BME280;36361;38.954;-9.002;2023-02-28T04:31:09;101173.56;;;7.53;100.00
50434;BME280;36361;38.954;-9.002;2023-02-28T04:32:13;101174.16;;;7.40;100.00
50434;BME280;36361;38.954;-9.002;2023-02-28T04:33:15;101178.56;;;7.41;100.00
50434;BME280;36361;38.954;-9.002;2023-02-28T04:34:20;101178.91;;;7.61;100.00
50434;BME280;36361;38.954;-9.002;2023-02-28T04:35:23;101183.56;;;7.67;100.00
50434;BME280;36361;38.954;-9.002;2023-02-28T04:36:40;101186.00;;;7.77;100.00
50434;BME280;36361;38.954;-9.002;2023-02-28T04:37:42;101182.44;;;7.77;100.00
50434;BME280;36361;38.954;-9.002;2023-02-28T04:38:45;101196.94;;;7.84;100.00
50434;BME280;36361;38.954;-9.002;2023-02-28T04:39:48;101197.25;;;7.89;100.00
50434;BME280;36361;38.954;-9.002;2023-02-28T04:40:57;101201.44;;;7.91;100.00
50434;BME280;36361;38.954;-9.002;2023-02-28T04:42:02;101202.50;;;7.67;100.00
50434;BME280;36361;38.954;-9.002;2023-02-28T04:43:04;101198.13;;;7.66;100.00
50434;BME280;36361;38.954;-9.002;2023-02-28T04:44:07;101202.09;;;7.79;100.00
50434;BME280;36361;38.954;-9.002;2023-02-28T04:45:10;101195.19;;;7.91;100.00
50434;BME280;36361;38.954;-9.002;2023-02-28T04:46:17;101195.00;;;7.92;100.00
50434;BME280;36361;38.954;-9.002;2023-02-28T04:47:19;101197.88;;;7.76;100.00
50434;BME280;36361;38.954;-9.002;2023-02-28T04:48:23;101200.59;;;7.91;100.00
50434;BME280;36361;38.954;-9.002;2023-02-28T04:49:26;101200.53;;;7.99;100.00
50434;BME280;36361;38.954;-9.002;2023-02-28T04:50:28;101194.53;;;8.04;100.00
50434;BME280;36361;38.954;-9.002;2023-02-28T04:51:37;101209.16;;;7.65;100.00
50434;BME280;36361;38.954;-9.002;2023-02-28T04:52:42;101220.91;;;7.57;100.00
50434;BME280;36361;38.954;-9.002;2023-02-28T04:53:44;101215.34;;;7.74;100.00
50434;BME280;36361;38.954;-9.002;2023-02-28T04:54:48;101222.81;;;7.72;100.00
50434;BME280;36361;38.954;-9.002;2023-02-28T04:55:55;101228.34;;;7.78;100.00
50434;BME280;36361;38.954;-9.002;2023-02-28T04:57:01;101227.06;;;7.89;100.00
50434;BME280;36361;38.954;-9.002;2023-02-28T04:58:03;101229.38;;;7.92;100.00
50434;BME280;36361;38.954;-9.002;2023-02-28T04:59:06;101229.19;;;7.93;100.00
50434;BME280;36361;38.954;-9.002;2023-02-28T05:00:08;101229.88;;;8.10;100.00
50434;BME280;36361;38.954;-9.002;2023-02-28T05:01:30;101239.69;;;8.11;100.00
50434;BME280;36361;38.954;-9.002;2023-02-28T05:02:34;101238.00;;;8.10;100.00
50434;BME280;36361;38.954;-9.002;2023-02-28T05:03:36;101238.19;;;8.09;100.00
50434;BME280;36361;38.954;-9.002;2023-02-28T05:04:38;101241.19;;;7.99;100.00
50434;BME280;36361;38.954;-9.002;2023-02-28T05:05:42;101239.13;;;8.01;100.00
50434;BME280;36361;38.954;-9.002;2023-02-28T05:06:44;101247.63;;;7.60;100.00
50434;BME280;36361;38.954;-9.002;2023-02-28T05:07:46;101246.88;;;7.66;100.00
50434;BME280;36361;38.954;-9.002;2023-02-28T05:08:48;101258.22;;;7.47;100.00
50434;BME280;36361;38.954;-9.002;2023-02-28T05:09:51;101258.69;;;7.74;100.00
50434;BME280;36361;38.954;-9.002;2023-02-28T05:10:54;101273.47;;;7.86;100.00
50434;BME280;36361;38.954;-9.002;2023-02-28T05:12:01;101257.97;;;7.80;100.00
50434;BME280;36361;38.954;-9.002;2023-02-28T05:13:03;101273.13;;;7.89;100.00
50434;BME280;36361;38.954;-9.002;2023-02-28T05:14:13;101273.31;;;7.87;100.00
50434;BME280;36361;38.954;-9.002;2023-02-28T05:15:19;101272.88;;;7.76;100.00
50434;BME280;36361;38.954;-9.002;2023-02-28T05:16:21;101279.41;;;7.66;100.00
50434;BME280;36361;38.954;-9.002;2023-02-28T05:17:23;101281.06;;;7.90;100.00
50434;BME280;36361;38.954;-9.002;2023-02-28T05:18:30;101271.28;;;7.66;100.00
50434;BME280;36361;38.954;-9.002;2023-02-28T05:19:36;101277.59;;;7.82;100.00
50434;BME280;36361;38.954;-9.002;2023-02-28T05:20:38;101272.63;;;7.85;100.00
50434;BME280;36361;38.954;-9.002;2023-02-28T05:21:52;101269.84;;;7.93;100.00
50434;BME280;36361;38.954;-9.002;2023-02-28T05:22:55;101268.66;;;7.96;100.00
50434;BME280;36361;38.954;-9.002;2023-02-28T05:24:00;101268.66;;;7.96;100.00
50434;BME280;36361;38.954;-9.002;2023-02-28T05:25:04;101271.06;;;7.91;100.00
50434;BME280;36361;38.954;-9.002;2023-02-28T05:26:07;101278.91;;;7.86;100.00
50434;BME280;36361;38.954;-9.002;2023-02-28T05:27:09;101270.59;;;7.87;98.39
50434;BME280;36361;38.954;-9.002;2023-02-28T05:28:11;101284.09;;;7.73;98.55
50434;BME280;36361;38.954;-9.002;2023-02-28T05:29:13;101285.91;;;7.57;99.18
50434;BME280;36361;38.954;-9.002;2023-02-28T05:30:17;101289.94;;;7.16;100.00
50434;BME280;36361;38.954;-9.002;2023-02-28T05:31:21;101292.97;;;7.12;96.88
50434;BME280;36361;38.954;-9.002;2023-02-28T05:32:23;101297.22;;;7.15;94.83
50434;BME280;36361;38.954;-9.002;2023-02-28T05:33:26;101304.16;;;7.09;94.12
50434;BME280;36361;38.954;-9.002;2023-02-28T05:34:29;101301.28;;;7.11;99.67
50434;BME280;36361;38.954;-9.002;2023-02-28T05:35:31;101296.59;;;7.05;99.50
50434;BME280;36361;38.954;-9.002;2023-02-28T05:36:33;101303.91;;;6.96;100.00
50434;BME280;36361;38.954;-9.002;2023-02-28T05:37:34;101299.66;;;6.94;98.63
50434;BME280;36361;38.954;-9.002;2023-02-28T05:38:36;101290.94;;;7.15;91.25
50434;BME280;36361;38.954;-9.002;2023-02-28T05:39:37;101300.72;;;7.24;87.88
50434;BME280;36361;38.954;-9.002;2023-02-28T05:40:39;101297.31;;;7.22;88.55
50434;BME280;36361;38.954;-9.002;2023-02-28T05:41:42;101300.13;;;7.05;88.39
50434;BME280;36361;38.954;-9.002;2023-02-28T05:42:44;101296.84;;;7.18;87.35
50434;BME280;36361;38.954;-9.002;2023-02-28T05:43:46;101301.28;;;7.42;86.25
50434;BME280;36361;38.954;-9.002;2023-02-28T05:44:47;101310.34;;;7.49;86.89
50434;BME280;36361;38.954;-9.002;2023-02-28T05:45:49;101298.19;;;7.45;85.81
50434;BME280;36361;38.954;-9.002;2023-02-28T05:46:51;101309.25;;;7.58;86.48
50434;BME280;36361;38.954;-9.002;2023-02-28T05:47:53;101303.13;;;7.41;87.98
50434;BME280;36361;38.954;-9.002;2023-02-28T05:48:55;101302.22;;;7.49;88.14
50434;BME280;36361;38.954;-9.002;2023-02-28T05:49:59;101301.94;;;7.44;87.24
50434;BME280;36361;38.954;-9.002;2023-02-28T05:51:03;101307.34;;;7.44;89.20
50434;BME280;36361;38.954;-9.002;2023-02-28T05:52:05;101307.03;;;7.39;86.53
50434;BME280;36361;38.954;-9.002;2023-02-28T05:53:07;101309.84;;;7.23;87.72
50434;BME280;36361;38.954;-9.002;2023-02-28T05:54:09;101307.84;;;7.17;89.27
50434;BME280;36361;38.954;-9.002;2023-02-28T05:55:12;101313.78;;;7.12;87.58
50434;BME280;36361;38.954;-9.002;2023-02-28T05:56:20;101304.97;;;6.87;87.89
50434;BME280;36361;38.954;-9.002;2023-02-28T05:57:23;101305.59;;;6.97;86.05
50434;BME280;36361;38.954;-9.002;2023-02-28T05:58:35;101310.56;;;7.17;84.26
50434;BME280;36361;38.954;-9.002;2023-02-28T05:59:40;101307.81;;;7.25;84.94
50434;BME280;36361;38.954;-9.002;2023-02-28T06:00:42;101305.06;;;7.33;85.15
50434;BME280;36361;38.954;-9.002;2023-02-28T06:01:47;101297.75;;;7.02;83.18
50434;BME280;36361;38.954;-9.002;2023-02-28T06:02:49;101296.38;;;7.15;81.79
50434;BME280;36361;38.954;-9.002;2023-02-28T06:03:52;101293.03;;;7.04;81.45
50434;BME280;36361;38.954;-9.002;2023-02-28T06:04:54;101287.69;;;7.19;82.44
50434;BME280;36361;38.954;-9.002;2023-02-28T06:05:56;101290.22;;;7.21;83.90
50434;BME280;36361;38.954;-9.002;2023-02-28T06:07:00;101285.13;;;7.26;82.16
50434;BME280;36361;38.954;-9.002;2023-02-28T06:08:07;101282.88;;;7.06;82.60
50434;BME280;36361;38.954;-9.002;2023-02-28T06:09:09;101279.22;;;6.91;90.10
50434;BME280;36361;38.954;-9.002;2023-02-28T06:10:11;101274.09;;;6.65;91.27
50434;BME280;36361;38.954;-9.002;2023-02-28T06:11:17;101283.75;;;6.68;92.14
50434;BME280;36361;38.954;-9.002;2023-02-28T06:12:24;101279.38;;;6.59;93.48
50434;BME280;36361;38.954;-9.002;2023-02-28T06:13:26;101278.31;;;6.68;95.87
50434;BME280;36361;38.954;-9.002;2023-02-28T06:14:29;101272.63;;;6.54;99.06